createdAt,value
2022-08-21T00:02:14.855Z,61.0
2022-08-21T00:22:14.780Z,62.8
2022-08-21T00:42:14.767Z,65.5
2022-08-21T01:02:14.702Z,66.2
2022-08-21T01:22:14.671Z,65.8
2022-08-21T02:22:14.680Z,66.2
2022-08-21T02:42:14.644Z,68.1
2022-08-21T03:22:14.588Z,69.6
2022-08-21T03:42:14.565Z,69.2
2022-08-21T04:02:14.483Z,70.3
2022-08-21T04:42:14.478Z,70.8
2022-08-21T05:02:14.449Z,70.3
2022-08-21T05:22:14.394Z,71.5
2022-08-21T05:42:14.384Z,73.0
2022-08-21T06:02:14.365Z,72.4
2022-08-21T06:22:14.324Z,72.8
2022-08-21T06:42:14.324Z,72.8
2022-08-21T07:02:14.314Z,70.6
2022-08-21T07:42:14.291Z,63.9
2022-08-21T08:02:14.189Z,61.9
2022-08-21T08:22:14.190Z,59.5
2022-08-21T08:42:14.169Z,58.0
2022-08-21T09:02:14.139Z,58.1
2022-08-21T09:22:14.171Z,57.6
2022-08-21T09:42:14.141Z,51.4
2022-08-21T10:02:14.073Z,46.7
2022-08-21T10:22:14.087Z,47.4
2022-08-21T11:02:13.957Z,44.4
2022-08-21T11:22:14.001Z,40.5
2022-08-21T11:42:13.927Z,41.1
2022-08-21T12:02:13.929Z,39.7
2022-08-21T12:22:13.857Z,37.6
2022-08-21T12:42:13.851Z,38.0
2022-08-21T13:02:13.902Z,36.3
2022-08-21T13:22:13.773Z,33.8
2022-08-21T13:42:13.833Z,34.6
2022-08-21T14:02:13.725Z,32.9
2022-08-21T14:42:13.691Z,33.8
2022-08-21T15:42:13.636Z,34.1
2022-08-21T16:02:13.571Z,33.7
2022-08-21T16:22:13.551Z,34.8
2022-08-21T16:42:13.579Z,34.3
2022-08-21T17:02:13.511Z,34.6
2022-08-21T17:22:13.532Z,36.0
2022-08-21T17:42:13.517Z,36.3
2022-08-21T18:22:13.382Z,40.8
2022-08-21T18:42:13.453Z,42.1
2022-08-21T19:02:13.447Z,43.4
2022-08-21T19:22:13.313Z,46.0
2022-08-21T19:42:13.415Z,47.6
2022-08-21T20:02:13.369Z,49.4
2022-08-21T20:22:13.337Z,50.2
2022-08-21T21:02:13.231Z,51.2
2022-08-21T21:22:13.280Z,52.6
2022-08-21T21:42:13.197Z,53.9
2022-08-21T22:02:13.209Z,52.7
2022-08-21T22:22:13.176Z,50.1
2022-08-21T22:42:13.137Z,50.7
2022-08-21T23:02:13.024Z,54.7
2022-08-21T23:22:13.084Z,52.2
